createdAt,value
2023-02-15T00:02:20.834Z,9.53
2023-02-15T00:05:23.576Z,11.30
2023-02-15T00:08:26.334Z,10.47
2023-02-15T00:11:50.678Z,10.87
2023-02-15T00:14:55.443Z,10.57
2023-02-15T00:17:58.986Z,10.50
2023-02-15T00:21:06.320Z,10.73
2023-02-15T00:24:11.043Z,10.43
2023-02-15T00:27:13.965Z,10.30
2023-02-15T00:30:19.207Z,10.03
2023-02-15T00:33:21.913Z,10.70
2023-02-15T00:36:24.630Z,11.30
2023-02-15T00:39:28.263Z,9.43
2023-02-15T00:42:30.956Z,9.77
2023-02-15T00:45:35.156Z,10.00
2023-02-15T00:48:37.852Z,10.23
2023-02-15T00:51:41.324Z,9.77
2023-02-15T00:54:45.070Z,9.17
2023-02-15T00:57:47.735Z,10.03
2023-02-15T01:00:51.971Z,10.10
2023-02-15T01:03:54.704Z,9.77
2023-02-15T01:06:57.360Z,10.00
2023-02-15T01:10:00.007Z,8.97
2023-02-15T01:13:02.695Z,9.17
2023-02-15T01:16:06.948Z,9.23
2023-02-15T01:19:09.596Z,10.40
2023-02-15T01:22:12.225Z,9.27
2023-02-15T01:25:14.859Z,8.57
2023-02-15T01:28:17.586Z,8.77
2023-02-15T01:31:23.361Z,8.37
2023-02-15T01:34:26.237Z,8.53
2023-02-15T01:37:28.937Z,8.90
2023-02-15T01:40:31.552Z,8.97
2023-02-15T01:43:42.462Z,8.03
2023-02-15T01:46:52.774Z,7.63
2023-02-15T01:50:03.645Z,8.63
2023-02-15T01:53:14.905Z,7.53
2023-02-15T01:56:21.828Z,8.97
2023-02-15T01:59:27.678Z,9.30
2023-02-15T02:02:32.725Z,9.17
2023-02-15T02:05:36.085Z,7.53
2023-02-15T02:08:41.924Z,7.87
2023-02-15T02:11:49.427Z,8.47
2023-02-15T02:14:55.029Z,8.87
2023-02-15T02:18:15.099Z,8.93
2023-02-15T02:22:03.975Z,9.33
2023-02-15T02:25:37.232Z,7.50
2023-02-15T02:29:14.800Z,8.90
2023-02-15T02:32:50.231Z,7.80
2023-02-15T02:36:03.519Z,8.20
2023-02-15T02:39:21.933Z,8.50
2023-02-15T02:42:31.840Z,8.00
2023-02-15T02:45:42.258Z,8.73
2023-02-15T02:48:45.233Z,9.13
2023-02-15T02:51:49.242Z,8.23
2023-02-15T02:54:51.916Z,8.70
2023-02-15T02:57:57.315Z,8.13
2023-02-15T03:01:06.766Z,9.33
2023-02-15T03:04:13.698Z,8.30
2023-02-15T03:07:23.014Z,9.07
2023-02-15T03:10:27.328Z,9.23
2023-02-15T03:13:31.054Z,9.80
2023-02-15T03:16:33.803Z,9.03
2023-02-15T03:19:39.516Z,10.80
2023-02-15T03:22:50.281Z,9.40
2023-02-15T03:25:59.232Z,8.83
2023-02-15T03:29:05.860Z,9.73
2023-02-15T03:32:13.115Z,8.93
2023-02-15T03:35:16.168Z,9.67
2023-02-15T03:38:27.667Z,8.77
2023-02-15T03:41:38.996Z,11.17
2023-02-15T03:44:51.229Z,10.23
2023-02-15T03:47:56.681Z,10.50
2023-02-15T03:51:20.307Z,10.40
2023-02-15T03:54:46.912Z,9.90
2023-02-15T03:58:07.428Z,10.17
2023-02-15T04:01:36.055Z,9.40
2023-02-15T04:04:40.855Z,8.80
2023-02-15T04:07:43.511Z,10.00
2023-02-15T04:10:57.020Z,10.53
2023-02-15T04:13:59.750Z,9.40
2023-02-15T04:17:01.507Z,8.23
2023-02-15T04:20:21.662Z,8.30
2023-02-15T04:23:41.693Z,8.33
2023-02-15T04:26:45.708Z,9.40
2023-02-15T04:29:50.791Z,9.50
2023-02-15T04:32:53.522Z,9.00
2023-02-15T04:35:57.136Z,10.00
2023-02-15T04:38:59.887Z,9.00
2023-02-15T04:42:04.083Z,9.33
2023-02-15T04:45:07.598Z,9.53
2023-02-15T04:48:10.265Z,9.67
2023-02-15T04:51:13.111Z,9.73
2023-02-15T04:54:15.812Z,10.93
2023-02-15T04:57:20.073Z,9.57
2023-02-15T05:00:22.791Z,9.83
2023-02-15T05:03:25.611Z,9.63
2023-02-15T05:06:28.350Z,10.20
2023-02-15T05:09:31.218Z,10.03
2023-02-15T05:12:35.328Z,10.23
2023-02-15T05:15:37.976Z,10.30
2023-02-15T05:18:40.606Z,9.83
2023-02-15T05:21:43.281Z,9.93
2023-02-15T05:25:03.500Z,10.63
2023-02-15T05:28:22.899Z,10.00
2023-02-15T05:31:25.788Z,8.93
2023-02-15T05:34:28.559Z,9.97
2023-02-15T05:37:31.226Z,10.27
2023-02-15T05:40:33.923Z,9.83
2023-02-15T05:43:38.250Z,10.03
2023-02-15T05:46:40.875Z,9.37
2023-02-15T05:49:43.573Z,10.67
2023-02-15T05:52:46.269Z,9.50
2023-02-15T05:55:48.916Z,10.40
2023-02-15T05:58:55.143Z,9.93
2023-02-15T06:01:58.233Z,11.03
2023-02-15T06:05:01.067Z,10.23
2023-02-15T06:08:05.876Z,10.60
2023-02-15T06:11:09.127Z,9.27
2023-02-15T06:14:13.429Z,9.20
2023-02-15T06:17:18.784Z,10.17
2023-02-15T06:20:21.403Z,9.80
2023-02-15T06:23:24.095Z,10.70
2023-02-15T06:26:26.957Z,8.73
2023-02-15T06:29:30.989Z,10.57
2023-02-15T06:32:33.991Z,9.20
2023-02-15T06:35:36.727Z,9.47
2023-02-15T06:38:39.412Z,9.23
2023-02-15T06:41:42.058Z,10.37
2023-02-15T06:44:46.348Z,8.27
2023-02-15T06:47:49.091Z,9.10
2023-02-15T06:50:51.698Z,9.73
2023-02-15T06:53:54.495Z,9.57
2023-02-15T06:56:57.212Z,8.67
2023-02-15T07:00:01.300Z,9.03
2023-02-15T07:03:04.013Z,8.50
2023-02-15T07:06:09.426Z,10.37
2023-02-15T07:09:12.217Z,9.97
2023-02-15T07:12:32.356Z,10.17
2023-02-15T07:15:36.456Z,10.70
2023-02-15T07:18:39.332Z,10.17
2023-02-15T07:21:45.004Z,9.63
2023-02-15T07:24:48.423Z,10.67
2023-02-15T07:27:58.013Z,10.53
2023-02-15T07:31:05.800Z,9.80
2023-02-15T07:34:11.662Z,10.47
2023-02-15T07:37:14.457Z,11.77
2023-02-15T07:40:17.455Z,11.07
2023-02-15T07:43:20.176Z,10.20
2023-02-15T07:46:26.485Z,11.20
2023-02-15T07:49:29.228Z,10.37
2023-02-15T07:52:31.897Z,11.07
2023-02-15T07:55:34.637Z,10.73
2023-02-15T07:58:52.921Z,11.17
2023-02-15T08:01:57.521Z,9.70
2023-02-15T08:05:00.697Z,11.30
2023-02-15T08:08:03.641Z,11.47
2023-02-15T08:11:27.305Z,11.67
2023-02-15T08:14:30.235Z,11.57
2023-02-15T08:17:38.175Z,11.27
2023-02-15T08:20:40.891Z,10.00
2023-02-15T08:23:43.629Z,10.37
2023-02-15T08:26:47.708Z,11.13
2023-02-15T08:29:50.448Z,11.07
2023-02-15T08:32:54.440Z,10.57
2023-02-15T08:35:57.093Z,9.77
2023-02-15T08:39:01.529Z,10.00
2023-02-15T08:42:04.570Z,8.97
2023-02-15T08:45:08.189Z,9.47
2023-02-15T08:48:12.324Z,9.70
2023-02-15T08:51:17.440Z,10.23
2023-02-15T08:54:22.119Z,9.73
2023-02-15T08:57:25.198Z,9.03
2023-02-15T09:00:29.245Z,9.87
2023-02-15T09:03:33.764Z,10.43
2023-02-15T09:06:38.155Z,10.40
2023-02-15T09:09:42.098Z,10.33
2023-02-15T09:12:45.156Z,10.73
2023-02-15T09:15:48.380Z,9.87
2023-02-15T09:18:53.670Z,9.40
2023-02-15T09:21:56.442Z,10.03
2023-02-15T09:24:59.134Z,9.67
2023-02-15T09:28:01.869Z,10.47
2023-02-15T09:31:09.751Z,10.67
2023-02-15T09:34:14.804Z,11.37
2023-02-15T09:37:17.502Z,11.90
2023-02-15T09:40:20.379Z,11.50
2023-02-15T09:43:35.366Z,11.77
2023-02-15T09:46:56.756Z,12.33
2023-02-15T09:50:07.995Z,12.50
2023-02-15T09:53:41.564Z,12.10
2023-02-15T09:56:49.704Z,12.33
2023-02-15T10:00:04.140Z,12.47
2023-02-15T10:03:18.940Z,12.83
2023-02-15T10:06:34.830Z,14.33
2023-02-15T10:09:57.596Z,13.03
2023-02-15T10:13:14.377Z,12.80
2023-02-15T10:16:27.249Z,13.47
2023-02-15T10:19:40.475Z,13.00
2023-02-15T10:22:56.480Z,11.13
2023-02-15T10:26:06.713Z,11.90
2023-02-15T10:29:17.148Z,11.43
2023-02-15T10:32:25.673Z,12.47
2023-02-15T10:35:38.598Z,11.73
2023-02-15T10:38:49.822Z,13.50
2023-02-15T10:42:01.886Z,11.60
2023-02-15T10:45:15.926Z,12.40
2023-02-15T10:49:03.282Z,11.30
2023-02-15T10:52:16.551Z,13.00
2023-02-15T10:55:27.704Z,11.82
2023-02-15T10:58:40.752Z,12.95
2023-02-15T11:01:50.616Z,11.88
2023-02-15T11:05:02.547Z,12.55
2023-02-15T11:08:10.063Z,12.68
2023-02-15T11:11:21.485Z,12.70
2023-02-15T11:14:37.314Z,12.55
2023-02-15T11:17:43.989Z,13.60
2023-02-15T11:20:55.243Z,13.85
2023-02-15T11:23:58.184Z,13.93
2023-02-15T11:27:07.583Z,12.45
2023-02-15T11:30:14.830Z,12.57
2023-02-15T11:33:23.258Z,11.65
2023-02-15T11:36:30.245Z,11.95
2023-02-15T11:39:33.798Z,12.73
2023-02-15T11:42:38.153Z,11.27
2023-02-15T11:45:44.720Z,12.27
2023-02-15T11:48:47.559Z,11.90
2023-02-15T11:51:51.611Z,12.32
2023-02-15T11:54:55.096Z,12.70
2023-02-15T11:58:08.052Z,11.57
2023-02-15T12:01:15.903Z,11.65
2023-02-15T12:04:26.018Z,10.95
2023-02-15T12:07:33.541Z,11.52
2023-02-15T12:10:42.334Z,12.35
2023-02-15T12:14:00.347Z,13.13
2023-02-15T12:17:03.253Z,11.73
2023-02-15T12:20:23.763Z,11.95
2023-02-15T12:23:30.189Z,11.57
2023-02-15T12:26:36.146Z,12.00
2023-02-15T12:29:46.018Z,11.02
2023-02-15T12:32:52.188Z,10.77
2023-02-15T12:36:03.011Z,11.23
2023-02-15T12:39:20.440Z,11.00
2023-02-15T12:42:24.743Z,10.80
2023-02-15T12:45:31.065Z,10.93
2023-02-15T12:48:33.848Z,11.93
2023-02-15T12:51:51.265Z,11.02
2023-02-15T18:29:16.285Z,11.10
2023-02-15T18:33:27.059Z,11.63
2023-02-15T20:06:09.010Z,11.03
2023-02-15T20:09:20.800Z,12.17
2023-02-15T20:12:25.495Z,11.10
2023-02-15T20:15:30.836Z,10.87
2023-02-15T20:18:33.616Z,11.60
2023-02-15T20:21:37.036Z,11.67
2023-02-15T20:24:41.457Z,12.50
2023-02-15T20:27:44.247Z,12.17
2023-02-15T20:30:47.727Z,11.60
2023-02-15T20:33:51.025Z,11.30
2023-02-15T20:36:53.740Z,11.47
2023-02-15T20:39:57.916Z,12.03
2023-02-15T20:43:00.865Z,11.40
2023-02-15T20:46:04.736Z,11.87
2023-02-15T20:49:07.686Z,12.47
2023-02-15T20:52:19.890Z,12.43
2023-02-15T20:55:25.553Z,12.17
2023-02-15T20:58:30.384Z,11.47
2023-02-15T21:01:33.301Z,11.70
2023-02-15T21:04:36.061Z,12.33
2023-02-15T21:07:38.715Z,10.37
2023-02-15T21:10:45.657Z,12.67
2023-02-15T21:13:49.540Z,12.23
2023-02-15T21:16:53.119Z,11.53
2023-02-15T21:19:55.881Z,11.47
2023-02-15T21:23:01.464Z,12.93
2023-02-15T21:26:07.513Z,11.87
2023-02-15T21:29:16.553Z,11.20
2023-02-15T21:32:19.816Z,12.00
2023-02-15T21:35:24.054Z,11.80
2023-02-15T21:38:31.091Z,11.23
2023-02-15T21:41:53.160Z,10.50
2023-02-15T21:45:14.097Z,11.20
2023-02-15T21:48:17.070Z,11.33
2023-02-15T21:51:37.223Z,11.13
2023-02-15T21:54:40.297Z,10.93
2023-02-15T21:57:44.607Z,11.30
2023-02-15T22:00:49.385Z,11.60
2023-02-15T22:03:54.010Z,10.93
2023-02-15T22:06:57.342Z,10.63
2023-02-15T22:10:00.466Z,10.93
2023-02-15T22:13:05.430Z,10.10
2023-02-15T22:16:08.602Z,10.47
2023-02-15T22:19:12.914Z,10.47
2023-02-15T22:22:16.157Z,10.53
2023-02-15T22:25:21.179Z,9.63
2023-02-15T22:28:29.053Z,9.03
2023-02-15T22:31:31.890Z,9.40
2023-02-15T22:34:34.903Z,11.10
2023-02-15T22:37:37.849Z,9.00
2023-02-15T22:40:43.453Z,8.63
2023-02-15T22:43:48.660Z,9.50
2023-02-15T22:46:51.699Z,9.37
2023-02-15T22:49:54.498Z,14.10
2023-02-15T22:52:57.696Z,12.13
2023-02-15T22:56:05.731Z,10.20
2023-02-15T22:59:16.799Z,10.00
2023-02-15T23:02:19.741Z,11.67
2023-02-15T23:05:25.292Z,11.07
2023-02-15T23:08:28.174Z,11.10
2023-02-15T23:11:31.053Z,10.77
2023-02-15T23:14:37.024Z,12.13
2023-02-15T23:17:39.725Z,10.27
2023-02-15T23:20:42.841Z,10.13
2023-02-15T23:23:47.535Z,8.57
2023-02-15T23:26:51.450Z,10.17
2023-02-15T23:29:55.556Z,8.03
2023-02-15T23:32:59.237Z,8.30
2023-02-15T23:36:02.031Z,8.07
2023-02-15T23:39:28.259Z,8.33
2023-02-15T23:42:34.890Z,9.30
2023-02-15T23:45:40.706Z,8.50
2023-02-15T23:48:43.486Z,7.20
2023-02-15T23:51:48.848Z,8.07
2023-02-15T23:54:51.573Z,7.97
2023-02-15T23:57:54.982Z,8.10
